Time;durP1;ratioP1;P1;durP2;ratioP2;P2;SDS_P1;SDS_P2;PMS_P1;PMS_P2;Temp;Humidity;BMP_temperature;BMP_pressure;BME280_temperature;BME280_humidity;BME280_pressure;Samples;Min_cycle;Max_cycle;Signal;HPM_P1;HPM_P2
2021/12/29 00:00:26;;;;;;;3.42;1.10;;;;;;;;;;5113669;27;20047;-72
2021/12/29 00:02:53;;;;;;;3.00;0.70;;;;;;;;;;5096483;27;20049;-72
2021/12/29 00:05:19;;;;;;;3.22;0.82;;;;;;;;;;5108966;28;20041;-72
2021/12/29 00:07:45;;;;;;;5.28;1.08;;;;;;;;;;5116707;27;20034;-72
2021/12/29 00:10:14;;;;;;;2.33;0.80;;;;;;;;;;5113544;27;20023;-72
2021/12/29 00:12:45;;;;;;;4.32;1.05;;;;;;;;;;5112993;27;20034;-72
2021/12/29 00:15:12;;;;;;;4.13;1.20;;;;;;;;;;5113177;28;20020;-72
2021/12/29 00:17:40;;;;;;;4.35;0.90;;;;;;;;;;5111638;28;20278;-72
2021/12/29 00:20:07;;;;;;;5.65;1.15;;;;;;;;;;5111934;28;20532;-72
2021/12/29 00:22:34;;;;;;;7.72;1.60;;;;;;;;;;5115248;28;20016;-72
2021/12/29 00:25:00;;;;;;;6.20;1.20;;;;;;;;;;5113187;28;20026;-72
2021/12/29 00:27:26;;;;;;;6.35;1.13;;;;;;;;;;5112885;28;20012;-72
2021/12/29 00:29:53;;;;;;;6.32;1.38;;;;;;;;;;5113319;28;20023;-72
2021/12/29 00:32:19;;;;;;;6.68;1.40;;;;;;;;;;5108774;28;20072;-72
2021/12/29 00:34:45;;;;;;;7.13;1.50;;;;;;;;;;5098319;28;20493;-72
2021/12/29 00:37:12;;;;;;;6.75;1.38;;;;;;;;;;5113041;28;20031;-73
2021/12/29 00:39:38;;;;;;;8.40;1.27;;;;;;;;;;5113227;28;20042;-73
2021/12/29 00:42:05;;;;;;;5.97;1.02;;;;;;;;;;5114160;28;20489;-72
2021/12/29 00:44:33;;;;;;;3.35;0.98;;;;;;;;;;5110184;28;20020;-72
2021/12/29 00:46:59;;;;;;;7.68;1.10;;;;;;;;;;5113414;28;20379;-73
2021/12/29 00:49:33;;;;;;;3.65;0.80;;;;;;;;;;5114140;28;20024;-72
2021/12/29 00:52:05;;;;;;;3.05;0.70;;;;;;;;;;5112833;28;20026;-72
2021/12/29 00:54:31;;;;;;;1.70;0.65;;;;;;;;;;5112735;28;20026;-71
2021/12/29 00:56:58;;;;;;;4.70;0.90;;;;;;;;;;5112600;28;20042;-71
2021/12/29 00:59:24;;;;;;;4.40;0.65;;;;;;;;;;5108978;28;20044;-72
2021/12/29 01:01:51;;;;;;;3.00;0.60;;;;;;;;;;5115098;28;20016;-70
2021/12/29 01:04:18;;;;;;;7.85;3.45;;;;;;;;;;5095400;28;20024;-71
2021/12/29 01:06:45;;;;;;;1.20;0.68;;;;;;;;;;5113097;28;20026;-72
2021/12/29 01:09:11;;;;;;;7.63;1.75;;;;;;;;;;5112768;28;20073;-72
2021/12/29 01:11:38;;;;;;;15.95;6.55;;;;;;;;;;5110568;28;20024;-72
2021/12/29 01:14:07;;;;;;;7.53;2.15;;;;;;;;;;5112019;28;20034;-72
2021/12/29 01:19:10;;;;;;;5.22;2.28;;;;;;;;;;5112712;28;20035;-72
2021/12/29 01:21:38;;;;;;;3.10;1.42;;;;;;;;;;5115568;27;20026;-73
2021/12/29 01:24:05;;;;;;;5.15;2.17;;;;;;;;;;5115901;27;20400;-73
2021/12/29 01:26:31;;;;;;;1.77;1.02;;;;;;;;;;5113568;27;20073;-72
2021/12/29 01:28:58;;;;;;;4.15;1.95;;;;;;;;;;5117219;27;20038;-72
2021/12/29 01:31:24;;;;;;;4.65;1.02;;;;;;;;;;5117298;27;20034;-72
2021/12/29 01:33:50;;;;;;;3.25;1.20;;;;;;;;;;5116356;27;20482;-72
2021/12/29 01:36:17;;;;;;;4.47;1.35;;;;;;;;;;5116088;27;20020;-73
2021/12/29 01:38:43;;;;;;;2.45;0.80;;;;;;;;;;5114625;27;20376;-72
2021/12/29 01:41:09;;;;;;;5.55;1.17;;;;;;;;;;5113822;27;20047;-73
2021/12/29 01:43:36;;;;;;;4.60;2.08;;;;;;;;;;5100319;28;20012;-72
2021/12/29 01:46:02;;;;;;;2.50;1.00;;;;;;;;;;5115951;27;20042;-72
2021/12/29 01:48:29;;;;;;;10.65;2.70;;;;;;;;;;5116120;27;20028;-72
2021/12/29 01:50:57;;;;;;;9.35;1.23;;;;;;;;;;5115972;27;20043;-72
2021/12/29 01:53:27;;;;;;;4.35;1.33;;;;;;;;;;5111586;27;20400;-72
2021/12/29 01:55:54;;;;;;;5.23;1.93;;;;;;;;;;5117215;27;20019;-72
2021/12/29 01:58:22;;;;;;;6.90;1.75;;;;;;;;;;5116851;27;20284;-72
2021/12/29 02:00:49;;;;;;;7.07;2.30;;;;;;;;;;5117125;27;20498;-72
2021/12/29 02:03:15;;;;;;;6.47;1.70;;;;;;;;;;5115533;27;20027;-72
2021/12/29 02:05:42;;;;;;;6.50;2.05;;;;;;;;;;5114603;27;20015;-72
2021/12/29 02:08:10;;;;;;;5.88;2.05;;;;;;;;;;5113265;27;20027;-72
2021/12/29 02:10:43;;;;;;;3.85;1.23;;;;;;;;;;5099642;28;20389;-72
2021/12/29 02:13:13;;;;;;;5.22;1.35;;;;;;;;;;5115451;27;20034;-72
2021/12/29 02:15:39;;;;;;;6.03;1.42;;;;;;;;;;5115311;27;20023;-72
2021/12/29 02:18:13;;;;;;;4.35;1.05;;;;;;;;;;5115505;27;20404;-72
2021/12/29 02:20:40;;;;;;;6.70;1.33;;;;;;;;;;5113686;27;20493;-72
2021/12/29 02:23:20;;;;;;;7.00;1.25;;;;;;;;;;5095181;28;20031;-72
2021/12/29 02:25:56;;;;;;;4.72;1.40;;;;;;;;;;5126400;27;20045;-72
2021/12/29 02:28:43;;;;;;;5.35;1.08;;;;;;;;;;5117981;27;20026;-72
2021/12/29 02:31:09;;;;;;;5.65;1.30;;;;;;;;;;5115034;27;20455;-72
2021/12/29 02:33:36;;;;;;;4.75;0.88;;;;;;;;;;5114376;27;20016;-72
2021/12/29 02:36:03;;;;;;;4.07;1.00;;;;;;;;;;5115231;27;20054;-72
2021/12/29 02:38:31;;;;;;;4.97;1.30;;;;;;;;;;5113092;27;20012;-72
2021/12/29 02:40:59;;;;;;;4.80;1.27;;;;;;;;;;5115180;27;20038;-72
2021/12/29 02:43:27;;;;;;;6.55;1.15;;;;;;;;;;5116140;27;20031;-72
2021/12/29 02:46:00;;;;;;;4.30;1.20;;;;;;;;;;5114642;27;20047;-72
2021/12/29 02:48:28;;;;;;;4.53;1.08;;;;;;;;;;5114717;27;20023;-72
2021/12/29 02:50:56;;;;;;;7.53;1.30;;;;;;;;;;5115071;27;20017;-73
2021/12/29 02:53:26;;;;;;;5.60;1.33;;;;;;;;;;5110530;27;20405;-73
2021/12/29 02:55:55;;;;;;;3.67;0.85;;;;;;;;;;5116605;27;20031;-72
2021/12/29 02:58:23;;;;;;;7.15;1.80;;;;;;;;;;5098973;28;20023;-72
2021/12/29 03:00:50;;;;;;;8.25;1.55;;;;;;;;;;5114509;27;20512;-72
2021/12/29 03:03:28;;;;;;;5.05;1.63;;;;;;;;;;5096228;28;20027;-72
2021/12/29 03:05:55;;;;;;;9.40;1.30;;;;;;;;;;5114035;27;20015;-72
2021/12/29 03:08:22;;;;;;;10.10;2.08;;;;;;;;;;5110278;27;20012;-72
2021/12/29 03:10:52;;;;;;;7.32;1.98;;;;;;;;;;5117111;27;20044;-72
2021/12/29 03:13:26;;;;;;;10.60;1.67;;;;;;;;;;5115167;27;20032;-72
2021/12/29 03:15:52;;;;;;;7.30;2.28;;;;;;;;;;5114215;27;20027;-72
2021/12/29 03:18:19;;;;;;;11.95;2.00;;;;;;;;;;5115630;27;20011;-72
2021/12/29 03:20:46;;;;;;;11.15;1.75;;;;;;;;;;5112938;27;20041;-72
2021/12/29 03:23:16;;;;;;;12.07;1.80;;;;;;;;;;5110850;27;20009;-72
2021/12/29 03:25:42;;;;;;;6.75;1.40;;;;;;;;;;5117382;27;20029;-72
2021/12/29 03:28:08;;;;;;;8.73;1.60;;;;;;;;;;5113909;27;20032;-72
2021/12/29 03:30:43;;;;;;;8.52;2.05;;;;;;;;;;5113977;27;20038;-72
2021/12/29 03:33:10;;;;;;;9.63;1.48;;;;;;;;;;5113918;27;20084;-73
2021/12/29 03:35:38;;;;;;;9.98;2.05;;;;;;;;;;5111721;27;20421;-72
2021/12/29 03:38:07;;;;;;;7.93;1.77;;;;;;;;;;5094439;28;20024;-72
2021/12/29 03:40:36;;;;;;;7.88;1.13;;;;;;;;;;5115613;27;20053;-72
2021/12/29 03:43:04;;;;;;;5.00;1.20;;;;;;;;;;5113810;27;20008;-73
2021/12/29 03:45:31;;;;;;;7.75;1.30;;;;;;;;;;5113610;27;20117;-72
2021/12/29 03:47:57;;;;;;;7.47;1.20;;;;;;;;;;5113768;27;20023;-73
2021/12/29 03:50:24;;;;;;;8.68;1.02;;;;;;;;;;5109728;27;20028;-72
2021/12/29 03:52:50;;;;;;;6.32;1.35;;;;;;;;;;5116001;27;20027;-72
2021/12/29 03:55:16;;;;;;;6.53;1.13;;;;;;;;;;5114080;27;20022;-72
2021/12/29 03:57:43;;;;;;;4.78;1.20;;;;;;;;;;5096573;28;20018;-72
2021/12/29 04:00:12;;;;;;;5.32;0.90;;;;;;;;;;5113497;27;20081;-72
2021/12/29 04:02:38;;;;;;;4.53;0.80;;;;;;;;;;5111671;27;20020;-72
2021/12/29 04:05:05;;;;;;;3.35;0.80;;;;;;;;;;5112008;27;20055;-72
2021/12/29 04:07:32;;;;;;;5.70;0.95;;;;;;;;;;5115221;27;20028;-72
2021/12/29 04:09:59;;;;;;;4.20;0.73;;;;;;;;;;5113280;27;20027;-72
2021/12/29 04:12:25;;;;;;;4.10;0.60;;;;;;;;;;5113409;27;20420;-72
2021/12/29 04:14:51;;;;;;;2.85;0.40;;;;;;;;;;5113160;27;20037;-73
2021/12/29 04:17:24;;;;;;;5.22;0.85;;;;;;;;;;5109076;28;20020;-73
2021/12/29 04:22:36;;;;;;;1.77;0.43;;;;;;;;;;5115487;28;20109;-72
2021/12/29 04:25:02;;;;;;;1.85;0.50;;;;;;;;;;5113067;28;20028;-72
2021/12/29 04:27:29;;;;;;;4.10;0.45;;;;;;;;;;5113070;28;20490;-72
2021/12/29 04:29:55;;;;;;;1.60;0.50;;;;;;;;;;5113473;28;20027;-72
2021/12/29 04:32:21;;;;;;;0.90;0.40;;;;;;;;;;5109080;28;20500;-72
2021/12/29 04:34:48;;;;;;;1.63;0.30;;;;;;;;;;5116112;28;20060;-72
2021/12/29 04:37:14;;;;;;;1.67;0.32;;;;;;;;;;5114671;28;20046;-72
2021/12/29 04:39:40;;;;;;;0.20;0.20;;;;;;;;;;5112976;28;20042;-72
2021/12/29 04:42:07;;;;;;;1.52;0.25;;;;;;;;;;5113151;28;20026;-72
2021/12/29 04:44:33;;;;;;;3.55;1.83;;;;;;;;;;5110392;28;20023;-72
2021/12/29 04:47:01;;;;;;;10.40;4.72;;;;;;;;;;5113013;28;20425;-72
2021/12/29 04:49:39;;;;;;;4.95;2.90;;;;;;;;;;5113642;28;20032;-72
2021/12/29 04:52:05;;;;;;;5.13;2.78;;;;;;;;;;5094746;28;20031;-72
2021/12/29 04:54:32;;;;;;;2.15;0.85;;;;;;;;;;5112596;28;20012;-72
2021/12/29 04:56:59;;;;;;;1.83;1.27;;;;;;;;;;5114557;27;20029;-73
2021/12/29 04:59:26;;;;;;;2.67;1.90;;;;;;;;;;5113004;27;20032;-72
2021/12/29 05:01:53;;;;;;;2.88;1.60;;;;;;;;;;5099646;28;20039;-72
2021/12/29 05:04:23;;;;;;;3.53;1.10;;;;;;;;;;5117745;27;20030;-72
2021/12/29 05:09:35;;;;;;;1.52;1.00;;;;;;;;;;5116766;27;20023;-72
2021/12/29 05:12:02;;;;;;;1.52;0.85;;;;;;;;;;5116434;27;20025;-72
2021/12/29 05:14:28;;;;;;;0.30;0.30;;;;;;;;;;5114792;27;20028;-73
2021/12/29 05:16:55;;;;;;;0.20;0.20;;;;;;;;;;5117161;27;20020;-72
2021/12/29 05:19:21;;;;;;;2.15;0.50;;;;;;;;;;5118624;27;20409;-73
2021/12/29 05:21:47;;;;;;;0.60;0.60;;;;;;;;;;5116508;27;20022;-72
2021/12/29 05:24:14;;;;;;;2.47;0.80;;;;;;;;;;5116209;27;20015;-72
2021/12/29 05:26:40;;;;;;;2.30;0.88;;;;;;;;;;5095962;27;20025;-72
2021/12/29 05:29:07;;;;;;;0.50;0.50;;;;;;;;;;5114977;27;20022;-72
2021/12/29 05:31:34;;;;;;;1.05;0.70;;;;;;;;;;5117984;27;20038;-72
2021/12/29 05:34:00;;;;;;;1.27;0.70;;;;;;;;;;5116145;27;20489;-72
2021/12/29 05:36:27;;;;;;;0.15;0.15;;;;;;;;;;5116353;27;20024;-72
2021/12/29 05:38:55;;;;;;;0.10;0.10;;;;;;;;;;5116495;27;20007;-72
2021/12/29 05:41:21;;;;;;;0.10;0.10;;;;;;;;;;5111675;28;20408;-72
2021/12/29 05:43:48;;;;;;;0.25;0.20;;;;;;;;;;5119145;27;20578;-72
2021/12/29 05:46:14;;;;;;;0.77;0.20;;;;;;;;;;5117400;27;20036;-72
2021/12/29 05:48:41;;;;;;;0.10;0.10;;;;;;;;;;5116003;27;20393;-72
2021/12/29 05:51:07;;;;;;;0.75;0.20;;;;;;;;;;5116014;27;20019;-72
2021/12/29 05:53:35;;;;;;;0.10;0.10;;;;;;;;;;5114861;27;20019;-72
2021/12/29 05:56:01;;;;;;;1.02;0.20;;;;;;;;;;5115629;27;20023;-72
2021/12/29 05:58:27;;;;;;;0.28;0.10;;;;;;;;;;5116961;27;20485;-72
2021/12/29 06:00:54;;;;;;;0.82;0.10;;;;;;;;;;5115179;27;20487;-72
2021/12/29 06:03:20;;;;;;;0.43;0.10;;;;;;;;;;5115995;27;20023;-72
2021/12/29 06:05:47;;;;;;;0.10;0.10;;;;;;;;;;5115044;27;20022;-72
2021/12/29 06:08:13;;;;;;;0.20;0.10;;;;;;;;;;5112327;27;20508;-72
2021/12/29 06:10:40;;;;;;;0.28;0.10;;;;;;;;;;5118653;27;20034;-72
2021/12/29 06:13:07;;;;;;;0.55;0.15;;;;;;;;;;5115418;27;20444;-71
2021/12/29 06:15:33;;;;;;;0.10;0.10;;;;;;;;;;5115458;27;20022;-72
2021/12/29 06:18:00;;;;;;;1.55;0.22;;;;;;;;;;5115032;27;20022;-70
2021/12/29 06:20:27;;;;;;;0.20;0.17;;;;;;;;;;5093136;27;20517;-71
2021/12/29 06:22:53;;;;;;;0.10;0.10;;;;;;;;;;5116792;27;20020;-72
2021/12/29 06:25:19;;;;;;;0.30;0.20;;;;;;;;;;5115918;27;20037;-71
2021/12/29 06:27:46;;;;;;;0.08;0.08;;;;;;;;;;5114757;27;20501;-71
2021/12/29 06:30:13;;;;;;;0.10;0.10;;;;;;;;;;5114556;27;20466;-71
2021/12/29 06:32:40;;;;;;;0.15;0.10;;;;;;;;;;5114614;27;20042;-72
2021/12/29 06:35:07;;;;;;;0.10;0.10;;;;;;;;;;5113864;27;20030;-72
2021/12/29 06:37:33;;;;;;;0.17;0.10;;;;;;;;;;5116919;27;20534;-72
2021/12/29 06:40:00;;;;;;;0.20;0.20;;;;;;;;;;5114485;27;20028;-72
2021/12/29 06:42:26;;;;;;;0.15;0.10;;;;;;;;;;5114963;27;20064;-72
2021/12/29 06:44:57;;;;;;;0.10;0.10;;;;;;;;;;5114538;27;20022;-72
2021/12/29 06:47:24;;;;;;;0.25;0.20;;;;;;;;;;5110831;27;20474;-72
2021/12/29 06:49:50;;;;;;;0.75;0.20;;;;;;;;;;5117341;27;20024;-72
2021/12/29 06:52:16;;;;;;;0.20;0.20;;;;;;;;;;5115272;27;20053;-72
2021/12/29 06:54:44;;;;;;;0.45;0.30;;;;;;;;;;5114644;27;20057;-72
2021/12/29 06:57:10;;;;;;;0.50;0.25;;;;;;;;;;5096047;27;20079;-72
2021/12/29 06:59:37;;;;;;;0.30;0.30;;;;;;;;;;5112223;27;20036;-72
2021/12/29 07:02:03;;;;;;;0.30;0.30;;;;;;;;;;5114667;27;20039;-72
2021/12/29 07:04:30;;;;;;;0.30;0.30;;;;;;;;;;5116011;27;20030;-72
2021/12/29 07:06:56;;;;;;;0.55;0.40;;;;;;;;;;5114320;27;20439;-72
2021/12/29 07:09:23;;;;;;;0.30;0.30;;;;;;;;;;5114279;27;20020;-72
2021/12/29 07:11:50;;;;;;;1.83;1.00;;;;;;;;;;5115649;27;20019;-72
2021/12/29 07:14:16;;;;;;;2.95;1.55;;;;;;;;;;5091856;28;20580;-72
2021/12/29 07:16:44;;;;;;;3.60;1.80;;;;;;;;;;5117356;27;20034;-72
2021/12/29 07:19:11;;;;;;;2.47;1.60;;;;;;;;;;5113330;27;20025;-73
2021/12/29 07:21:37;;;;;;;6.78;3.33;;;;;;;;;;5095609;28;20031;-72
2021/12/29 07:24:04;;;;;;;2.90;2.20;;;;;;;;;;5114012;27;20385;-72
2021/12/29 07:26:31;;;;;;;1.48;1.13;;;;;;;;;;5111070;27;20030;-72
2021/12/29 07:28:57;;;;;;;3.47;2.03;;;;;;;;;;5114343;27;20012;-72
2021/12/29 07:31:25;;;;;;;2.75;1.92;;;;;;;;;;5115012;27;20058;-72
2021/12/29 07:33:51;;;;;;;1.52;0.90;;;;;;;;;;5113738;27;20478;-72
2021/12/29 07:36:18;;;;;;;3.92;1.30;;;;;;;;;;5113688;27;20035;-71
2021/12/29 07:38:44;;;;;;;2.28;0.80;;;;;;;;;;5113110;27;20015;-72
2021/12/29 07:41:11;;;;;;;1.92;1.30;;;;;;;;;;5110851;27;20038;-72
2021/12/29 07:43:38;;;;;;;2.60;1.45;;;;;;;;;;5116272;27;20385;-72
2021/12/29 07:46:06;;;;;;;1.38;0.82;;;;;;;;;;5113388;27;20429;-72
2021/12/29 07:48:33;;;;;;;2.88;0.80;;;;;;;;;;5113206;27;20020;-72
2021/12/29 07:51:00;;;;;;;3.05;0.60;;;;;;;;;;5114844;27;20031;-73
2021/12/29 07:53:26;;;;;;;1.80;0.40;;;;;;;;;;5109783;27;20027;-72
2021/12/29 07:55:53;;;;;;;0.57;0.50;;;;;;;;;;5096607;28;20028;-72
2021/12/29 07:58:19;;;;;;;2.65;0.80;;;;;;;;;;5114185;27;20028;-72
2021/12/29 08:00:46;;;;;;;1.33;0.73;;;;;;;;;;5113053;27;20035;-72
2021/12/29 08:03:12;;;;;;;1.50;1.08;;;;;;;;;;5113163;27;20023;-72
2021/12/29 08:05:39;;;;;;;1.95;0.88;;;;;;;;;;5111407;28;20387;-73
2021/12/29 08:08:06;;;;;;;4.20;1.90;;;;;;;;;;5112310;27;20012;-72
2021/12/29 08:10:36;;;;;;;4.38;1.95;;;;;;;;;;5114451;27;20385;-72
2021/12/29 08:13:04;;;;;;;3.05;1.98;;;;;;;;;;5113216;27;20026;-72
2021/12/29 08:15:32;;;;;;;5.85;2.33;;;;;;;;;;5112953;27;20033;-72
2021/12/29 08:17:58;;;;;;;7.53;2.65;;;;;;;;;;5113305;28;20015;-72
2021/12/29 08:20:25;;;;;;;4.55;2.22;;;;;;;;;;5109116;28;20042;-72
2021/12/29 08:22:52;;;;;;;9.85;4.25;;;;;;;;;;5115509;27;20024;-72
2021/12/29 08:25:18;;;;;;;5.70;2.80;;;;;;;;;;5113314;28;20035;-72
2021/12/29 08:27:45;;;;;;;4.93;2.05;;;;;;;;;;5113337;28;20020;-72
2021/12/29 08:30:12;;;;;;;3.13;1.48;;;;;;;;;;5114620;27;20027;-72
2021/12/29 08:32:38;;;;;;;4.57;2.30;;;;;;;;;;5114636;27;20049;-72
2021/12/29 08:35:05;;;;;;;4.30;2.10;;;;;;;;;;5116596;27;20053;-72
2021/12/29 08:37:32;;;;;;;4.72;1.35;;;;;;;;;;5118933;27;20020;-72
2021/12/29 08:39:58;;;;;;;3.88;1.50;;;;;;;;;;5116759;27;20026;-72
2021/12/29 08:42:24;;;;;;;5.20;2.13;;;;;;;;;;5116957;27;20506;-72
2021/12/29 08:44:51;;;;;;;4.55;2.40;;;;;;;;;;5116703;27;20397;-72
2021/12/29 08:47:17;;;;;;;2.00;1.20;;;;;;;;;;5096521;28;20040;-72
2021/12/29 08:49:44;;;;;;;3.28;1.30;;;;;;;;;;5120354;27;20032;-72
2021/12/29 08:52:10;;;;;;;3.58;1.80;;;;;;;;;;5116706;27;20057;-72
2021/12/29 08:54:37;;;;;;;6.90;2.28;;;;;;;;;;5116506;27;20019;-72
2021/12/29 08:57:03;;;;;;;2.40;1.30;;;;;;;;;;5116690;27;20027;-73
2021/12/29 08:59:30;;;;;;;3.42;1.58;;;;;;;;;;5113579;27;20077;-72
2021/12/29 09:01:56;;;;;;;3.35;1.67;;;;;;;;;;5117715;27;20058;-73
2021/12/29 09:04:22;;;;;;;5.88;1.80;;;;;;;;;;5118156;27;20026;-72
2021/12/29 09:06:49;;;;;;;2.65;1.70;;;;;;;;;;5116574;27;20026;-72
2021/12/29 09:09:16;;;;;;;10.27;2.85;;;;;;;;;;5117614;27;20030;-72
2021/12/29 09:11:42;;;;;;;4.18;1.73;;;;;;;;;;5097401;27;20019;-72
2021/12/29 09:14:09;;;;;;;3.83;1.70;;;;;;;;;;5114855;27;20019;-72
2021/12/29 09:16:35;;;;;;;7.93;1.98;;;;;;;;;;5118483;27;20512;-72
2021/12/29 09:19:01;;;;;;;9.70;2.50;;;;;;;;;;5116457;27;20057;-72
2021/12/29 09:21:29;;;;;;;6.60;1.95;;;;;;;;;;5116110;27;20031;-72
2021/12/29 09:23:56;;;;;;;2.60;1.50;;;;;;;;;;5115646;27;20023;-72
2021/12/29 09:26:22;;;;;;;4.88;1.77;;;;;;;;;;5112357;27;20028;-72
2021/12/29 09:28:49;;;;;;;3.35;1.40;;;;;;;;;;5119489;27;20019;-72
2021/12/29 09:31:16;;;;;;;2.97;1.17;;;;;;;;;;5117918;27;20023;-72
2021/12/29 09:33:43;;;;;;;4.32;1.80;;;;;;;;;;5116178;27;20026;-72
2021/12/29 09:36:09;;;;;;;5.57;1.77;;;;;;;;;;5116116;27;20496;-72
2021/12/29 09:38:36;;;;;;;5.85;1.73;;;;;;;;;;5113559;27;20012;-72
2021/12/29 09:41:14;;;;;;;5.20;1.52;;;;;;;;;;5115978;27;20024;-72
2021/12/29 09:43:41;;;;;;;6.35;2.42;;;;;;;;;;5118269;27;20020;-72
2021/12/29 09:46:08;;;;;;;6.55;1.90;;;;;;;;;;5115795;27;20058;-72
2021/12/29 09:48:35;;;;;;;7.20;2.00;;;;;;;;;;5117301;27;20397;-72
2021/12/29 09:51:02;;;;;;;5.93;1.60;;;;;;;;;;5116139;27;20027;-72
2021/12/29 09:53:29;;;;;;;4.95;1.65;;;;;;;;;;5112386;27;20012;-72
2021/12/29 09:55:55;;;;;;;6.03;2.50;;;;;;;;;;5117206;27;20046;-72
2021/12/29 09:58:21;;;;;;;5.55;1.80;;;;;;;;;;5116863;27;20030;-72
2021/12/29 10:00:50;;;;;;;5.20;1.90;;;;;;;;;;5115535;27;20028;-72
2021/12/29 10:03:18;;;;;;;4.20;1.50;;;;;;;;;;5115745;27;20136;-72
2021/12/29 10:05:45;;;;;;;6.97;1.90;;;;;;;;;;5114563;27;20064;-73
2021/12/29 10:08:35;;;;;;;8.73;2.00;;;;;;;;;;5112565;27;20485;-72
2021/12/29 10:11:03;;;;;;;5.38;1.50;;;;;;;;;;5117325;27;20405;-72
2021/12/29 10:13:31;;;;;;;5.38;2.22;;;;;;;;;;5116477;27;20038;-72
2021/12/29 10:16:03;;;;;;;12.10;4.60;;;;;;;;;;5115266;27;20038;-72
2021/12/29 10:18:30;;;;;;;11.40;3.72;;;;;;;;;;5115332;27;20024;-72
2021/12/29 10:20:58;;;;;;;10.70;2.83;;;;;;;;;;5115219;27;20035;-72
2021/12/29 10:23:24;;;;;;;5.70;2.17;;;;;;;;;;5111300;28;20083;-72
2021/12/29 10:25:52;;;;;;;6.32;2.13;;;;;;;;;;5099213;28;20039;-71
2021/12/29 10:28:29;;;;;;;3.10;1.60;;;;;;;;;;5117352;27;20018;-72
2021/12/29 10:31:00;;;;;;;6.03;1.85;;;;;;;;;;5115380;27;20011;-72
2021/12/29 10:33:26;;;;;;;;;;;;;;;;;;5115525;27;20382;-72
2021/12/29 10:35:53;;;;;;;3.78;1.40;;;;;;;;;;5114658;27;20383;-72
2021/12/29 10:38:22;;;;;;;1.85;1.20;;;;;;;;;;5110865;28;20031;-72
2021/12/29 10:40:49;;;;;;;5.40;2.20;;;;;;;;;;5126465;27;20041;-72
2021/12/29 10:43:16;;;;;;;4.95;1.85;;;;;;;;;;5114706;27;20033;-72
2021/12/29 10:45:43;;;;;;;5.18;1.30;;;;;;;;;;5114749;27;20032;-70
2021/12/29 10:48:21;;;;;;;3.08;1.40;;;;;;;;;;5096481;27;20031;-72
2021/12/29 10:50:59;;;;;;;2.90;1.20;;;;;;;;;;5113964;27;20033;-72
2021/12/29 10:53:26;;;;;;;2.25;1.00;;;;;;;;;;5095079;28;20028;-72
2021/12/29 10:55:52;;;;;;;1.67;0.68;;;;;;;;;;5116460;27;20404;-72
2021/12/29 10:58:21;;;;;;;1.45;0.77;;;;;;;;;;5115584;27;20031;-72
2021/12/29 11:00:57;;;;;;;2.30;0.93;;;;;;;;;;5114337;27;20024;-72
2021/12/29 11:03:24;;;;;;;1.13;0.70;;;;;;;;;;5114082;27;20028;-72
2021/12/29 11:05:58;;;;;;;2.35;0.70;;;;;;;;;;5114836;27;20025;-72
2021/12/29 11:08:25;;;;;;;2.75;0.35;;;;;;;;;;5076711;28;20022;-72
2021/12/29 11:10:53;;;;;;;0.35;0.35;;;;;;;;;;5116512;27;20031;-72
2021/12/29 11:13:26;;;;;;;1.95;0.60;;;;;;;;;;5114903;27;20503;-73
2021/12/29 11:15:55;;;;;;;1.13;0.60;;;;;;;;;;5114055;27;20054;-72
2021/12/29 11:18:22;;;;;;;1.10;0.77;;;;;;;;;;5114094;27;20015;-72
2021/12/29 11:20:53;;;;;;;0.68;0.50;;;;;;;;;;5113097;27;20023;-73
2021/12/29 11:23:20;;;;;;;1.70;0.50;;;;;;;;;;5093783;28;20019;-73
2021/12/29 11:25:47;;;;;;;0.45;0.40;;;;;;;;;;5124900;27;20490;-72
2021/12/29 11:28:21;;;;;;;0.35;0.35;;;;;;;;;;5114041;27;20024;-72
2021/12/29 11:30:47;;;;;;;0.82;0.43;;;;;;;;;;5095807;27;20040;-72
2021/12/29 11:33:14;;;;;;;1.02;0.30;;;;;;;;;;5122221;27;20377;-72
2021/12/29 11:35:42;;;;;;;0.60;0.40;;;;;;;;;;5112196;27;20397;-72
2021/12/29 11:38:08;;;;;;;1.45;0.88;;;;;;;;;;5112527;27;20026;-72
2021/12/29 11:40:37;;;;;;;2.03;1.27;;;;;;;;;;5115460;27;20038;-72
2021/12/29 11:43:03;;;;;;;2.00;1.40;;;;;;;;;;5114069;27;20020;-72
2021/12/29 11:45:30;;;;;;;3.13;1.48;;;;;;;;;;5119400;27;20051;-72
2021/12/29 11:47:57;;;;;;;2.60;1.80;;;;;;;;;;5128858;27;20418;-72
2021/12/29 11:50:46;;;;;;;3.40;2.25;;;;;;;;;;5129899;27;20025;-72
2021/12/29 11:53:12;;;;;;;0.93;0.80;;;;;;;;;;5130504;27;20366;-72
2021/12/29 11:55:46;;;;;;;0.95;0.70;;;;;;;;;;5132290;27;20034;-72
2021/12/29 11:58:13;;;;;;;0.65;0.40;;;;;;;;;;5129116;27;20091;-72
2021/12/29 12:00:40;;;;;;;2.25;0.30;;;;;;;;;;5128874;27;20041;-72
2021/12/29 12:03:08;;;;;;;0.52;0.40;;;;;;;;;;5129089;27;20027;-72
2021/12/29 12:05:35;;;;;;;0.40;0.40;;;;;;;;;;5129399;27;20018;-73
2021/12/29 12:08:06;;;;;;;0.45;0.40;;;;;;;;;;5131641;27;20031;-73
2021/12/29 12:10:35;;;;;;;0.70;0.65;;;;;;;;;;5130686;27;20026;-72
2021/12/29 12:13:04;;;;;;;1.50;0.68;;;;;;;;;;5128862;27;20027;-72
2021/12/29 12:15:31;;;;;;;0.77;0.73;;;;;;;;;;5128964;27;20015;-72
2021/12/29 12:18:06;;;;;;;4.20;0.60;;;;;;;;;;5128557;27;20007;-72
2021/12/29 12:20:49;;;;;;;0.47;0.30;;;;;;;;;;5128862;28;20028;-72
2021/12/29 12:23:42;;;;;;;0.80;0.52;;;;;;;;;;5130131;27;20067;-72
2021/12/29 12:26:09;;;;;;;0.28;0.28;;;;;;;;;;5127586;28;20132;-72
2021/12/29 12:28:46;;;;;;;0.68;0.40;;;;;;;;;;5130733;28;20027;-72
2021/12/29 12:31:26;;;;;;;0.30;0.30;;;;;;;;;;5128838;28;20027;-72
2021/12/29 12:33:53;;;;;;;0.40;0.40;;;;;;;;;;5113588;28;20490;-73
2021/12/29 12:36:20;;;;;;;0.50;0.50;;;;;;;;;;5128796;28;20256;-72
2021/12/29 12:38:47;;;;;;;0.88;0.60;;;;;;;;;;5128979;28;20024;-72
2021/12/29 12:41:18;;;;;;;0.40;0.40;;;;;;;;;;5129797;28;20088;-72
2021/12/29 12:43:53;;;;;;;0.50;0.50;;;;;;;;;;5132028;28;20030;-72
2021/12/29 12:46:29;;;;;;;2.47;0.40;;;;;;;;;;5128842;28;20525;-72
2021/12/29 12:48:56;;;;;;;1.27;0.60;;;;;;;;;;5110915;28;20067;-72
2021/12/29 12:51:22;;;;;;;0.30;0.30;;;;;;;;;;5128520;28;20050;-72
2021/12/29 12:53:49;;;;;;;1.10;0.70;;;;;;;;;;5128713;28;20029;-72
2021/12/29 12:56:17;;;;;;;0.60;0.30;;;;;;;;;;5129684;28;20027;-72
2021/12/29 12:58:45;;;;;;;0.55;0.55;;;;;;;;;;5131731;28;20482;-72
2021/12/29 13:01:17;;;;;;;0.47;0.47;;;;;;;;;;5127441;28;20112;-72
2021/12/29 13:03:43;;;;;;;1.48;0.57;;;;;;;;;;5130122;28;20388;-72
2021/12/29 13:06:15;;;;;;;0.80;0.60;;;;;;;;;;5128384;28;20011;-72
2021/12/29 13:08:43;;;;;;;0.70;0.60;;;;;;;;;;5128749;28;20031;-72
2021/12/29 13:11:15;;;;;;;4.05;1.30;;;;;;;;;;5111917;28;20027;-71
2021/12/29 13:13:45;;;;;;;1.38;1.00;;;;;;;;;;5113344;28;20041;-72
2021/12/29 13:16:13;;;;;;;1.23;0.80;;;;;;;;;;5127957;27;20542;-72
2021/12/29 13:18:40;;;;;;;2.28;1.30;;;;;;;;;;5131703;27;20031;-71
2021/12/29 13:21:09;;;;;;;2.55;1.35;;;;;;;;;;5132291;27;20031;-72
2021/12/29 13:23:36;;;;;;;2.38;1.40;;;;;;;;;;5132743;27;20503;-72
2021/12/29 13:26:04;;;;;;;1.38;0.80;;;;;;;;;;5134627;27;20071;-72
2021/12/29 13:28:33;;;;;;;0.80;0.68;;;;;;;;;;5133867;27;20027;-72
2021/12/29 13:31:08;;;;;;;0.95;0.70;;;;;;;;;;5131866;27;20023;-72
2021/12/29 13:33:42;;;;;;;1.40;0.60;;;;;;;;;;5132149;27;20023;-72
2021/12/29 13:36:09;;;;;;;0.90;0.47;;;;;;;;;;5132147;27;20029;-72
2021/12/29 13:38:36;;;;;;;0.75;0.43;;;;;;;;;;5132164;27;20503;-71
2021/12/29 13:41:02;;;;;;;0.90;0.70;;;;;;;;;;5133707;27;20041;-72
2021/12/29 13:43:30;;;;;;;1.65;0.82;;;;;;;;;;5135395;27;20063;-72
2021/12/29 13:45:58;;;;;;;0.98;0.70;;;;;;;;;;5131342;27;20039;-72
2021/12/29 13:48:31;;;;;;;0.60;0.60;;;;;;;;;;5131831;27;20027;-72
2021/12/29 13:50:57;;;;;;;1.15;0.30;;;;;;;;;;5131730;27;20016;-72
2021/12/29 13:53:25;;;;;;;0.40;0.32;;;;;;;;;;5131956;27;20049;-72
2021/12/29 13:55:51;;;;;;;0.30;0.30;;;;;;;;;;5135053;27;20086;-71
2021/12/29 13:58:18;;;;;;;0.63;0.35;;;;;;;;;;5133444;27;20043;-72
2021/12/29 14:00:45;;;;;;;0.75;0.38;;;;;;;;;;5131225;27;20053;-72
2021/12/29 14:03:11;;;;;;;0.30;0.30;;;;;;;;;;5131574;27;20024;-72
2021/12/29 14:05:48;;;;;;;0.50;0.43;;;;;;;;;;5131737;27;20027;-72
2021/12/29 14:08:18;;;;;;;0.47;0.32;;;;;;;;;;5132623;27;20466;-72
2021/12/29 14:10:46;;;;;;;0.30;0.30;;;;;;;;;;5134819;27;20019;-72
2021/12/29 14:13:14;;;;;;;0.40;0.25;;;;;;;;;;5130923;27;20509;-72
2021/12/29 14:15:41;;;;;;;0.95;0.30;;;;;;;;;;5131468;27;20023;-71
2021/12/29 14:18:12;;;;;;;0.20;0.20;;;;;;;;;;5130726;27;20023;-72
2021/12/29 14:20:38;;;;;;;0.85;0.38;;;;;;;;;;5132700;27;20041;-72
2021/12/29 14:23:04;;;;;;;0.80;0.43;;;;;;;;;;5133710;27;20019;-72
2021/12/29 14:25:35;;;;;;;1.10;0.50;;;;;;;;;;5132655;27;20020;-72
2021/12/29 14:28:01;;;;;;;0.70;0.20;;;;;;;;;;5130543;27;20038;-72
2021/12/29 14:30:29;;;;;;;1.98;0.50;;;;;;;;;;5130832;27;20023;-72
2021/12/29 14:32:59;;;;;;;1.10;0.98;;;;;;;;;;5130952;27;20474;-72
2021/12/29 14:35:26;;;;;;;2.53;0.50;;;;;;;;;;5131186;27;20496;-72
2021/12/29 14:37:54;;;;;;;0.75;0.57;;;;;;;;;;5134135;27;20519;-72
2021/12/29 14:40:27;;;;;;;2.22;1.23;;;;;;;;;;5131672;27;20035;-72
2021/12/29 14:42:54;;;;;;;0.35;0.20;;;;;;;;;;5130338;27;20023;-72
2021/12/29 14:45:20;;;;;;;1.65;0.52;;;;;;;;;;5130722;27;20032;-73
2021/12/29 14:47:48;;;;;;;2.10;0.70;;;;;;;;;;5131010;27;20019;-72
2021/12/29 14:50:17;;;;;;;1.63;0.70;;;;;;;;;;5131605;27;20520;-72
2021/12/29 14:52:45;;;;;;;1.75;0.60;;;;;;;;;;5133345;27;20537;-72
2021/12/29 14:55:29;;;;;;;0.90;0.60;;;;;;;;;;5130034;27;20388;-72